Hovedside
METAR-TAF:

METAR-TAF

Lufthavner :

Sohag, Egypt

breddegrad: 26-20-25N, lengdegrad: 31-44-20E, høyde over havet: 70 m

Gjeldene værobservasjon

Denne rapporten ble laget for 1 time og 11 minutter siden, klokken 19:00 UTC
Vind 4 kt fra Vest
Temperatur 20°C
Luftfuktighet 43%
Trykk 1015 hPa
Sikt 10 km eller mer
ingen skyer under 1500 m og ingen bygeskyer

METAR: HESG 281900Z 26004KT CAVOK 20/07 Q1015 NOSIG

Tid: 22:11 (20:11 UTC)

Varsel

Denne rapporten ble laget for 3 timer og 11 minutter siden, klokken 17:00 UTC
Varsel gyldig fra 28. klokken 18 UTC til 29. klokken 24 UTC
Vind 10 kt fra Nordvest
Sikt 10 km eller mer
ingen skyer under 1500 m og ingen bygeskyer

TAF: HESG 281700Z 2818/2924 32010KT CAVOK

Værobservasjoner og værvarsel for over 4000 flyplasser (METAR- og TAF-rapporter).

Tilgjengelige stasjoner er representert av de røde og gule prikkene på kartet.

Hold musepekeren over prikken for å se navnet på stasjonen.

Klikk så for å se værobservasjoner og -varsler.

For å forandre kartet kan du klikke på den grønne knappen med svart kryss for å zoome inn, på den grønne knappen med strek for å zoome ut, eller på de grønne pilene for å se tilstøtende kart.


METAR-TAF: